Time;durP1;ratioP1;P1;durP2;ratioP2;P2;SDS_P1;SDS_P2;PMS_P1;PMS_P2;Temp;Humidity;BMP_temperature;BMP_pressure;BME280_temperature;BME280_humidity;BME280_pressure;Samples;Min_cycle;Max_cycle;Signal;HPM_P1;HPM_P2
2023/01/06 00:01:16;;;;;;;68.95;43.75;;;;;;;5.10;100.00;99668.41;5049931;28;20056;-73
2023/01/06 00:03:42;;;;;;;67.10;43.75;;;;;;;5.69;100.00;99773.56;5051050;28;20056;-73
2023/01/06 00:06:09;;;;;;;68.40;44.30;;;;;;;5.50;100.00;99767.06;5050008;28;20543;-73
2023/01/06 00:08:35;;;;;;;72.35;46.08;;;;;;;5.48;100.00;99772.97;5051283;28;20037;-73
2023/01/06 00:11:09;;;;;;;67.93;44.65;;;;;;;5.17;100.00;99697.69;5051203;28;20542;-73
2023/01/06 00:13:34;;;;;;;71.90;45.95;;;;;;;5.58;100.00;99774.53;5051414;28;20033;-72
2023/01/06 00:16:11;;;;;;;70.82;46.10;;;;;;;5.64;100.00;99761.84;5050730;28;20423;-73
2023/01/06 00:18:36;;;;;;;70.97;46.78;;;;;;;5.39;100.00;99773.06;5051086;28;20029;-73
2023/01/06 00:21:03;;;;;;;73.43;47.60;;;;;;;5.52;100.00;99788.03;5050805;28;20044;-73
2023/01/06 00:23:29;;;;;;;72.03;47.22;;;;;;;4.93;100.00;99702.97;5051326;28;20083;-73
2023/01/06 00:25:54;;;;;;;69.68;46.63;;;;;;;5.19;100.00;99688.44;5051516;28;20048;-74
2023/01/06 00:28:20;;;;;;;67.40;46.55;;;;;;;5.01;100.00;99690.34;5050209;28;20116;-74
2023/01/06 00:30:45;;;;;;;70.22;46.65;;;;;;;5.52;100.00;99754.44;5049846;28;20040;-73
2023/01/06 00:33:11;;;;;;;68.47;46.90;;;;;;;5.00;100.00;99689.50;5051501;28;20025;-72
2023/01/06 00:35:36;;;;;;;74.95;48.03;;;;;;;4.76;100.00;99599.09;5049819;28;20057;-73
2023/01/06 00:38:02;;;;;;;69.05;46.10;;;;;;;5.69;100.00;99750.00;5051023;28;20039;-72
2023/01/06 00:40:28;;;;;;;75.15;47.40;;;;;;;5.61;100.00;99739.19;5049483;28;20112;-72
2023/01/06 00:42:53;;;;;;;70.45;45.47;;;;;;;5.16;100.00;99677.56;5049443;28;20072;-72
2023/01/06 00:45:19;;;;;;;69.43;45.83;;;;;;;5.33;100.00;99736.16;5050376;28;20025;-73
2023/01/06 00:47:44;;;;;;;67.90;45.90;;;;;;;4.69;100.00;99601.69;5051192;28;20423;-72
2023/01/06 00:50:10;;;;;;;73.70;46.03;;;;;;;5.51;100.00;99753.59;5054267;28;20041;-72
2023/01/06 00:52:35;;;;;;;71.63;47.05;;;;;;;5.44;100.00;99779.72;5054393;28;20577;-73
2023/01/06 00:55:01;;;;;;;71.35;47.38;;;;;;;5.48;100.00;99753.63;5054195;28;20502;-73
2023/01/06 00:57:26;;;;;;;72.13;45.97;;;;;;;5.16;100.00;99718.72;5054063;28;20040;-73
2023/01/06 00:59:52;;;;;;;70.00;46.78;;;;;;;5.58;100.00;99749.31;5054073;28;20041;-73
2023/01/06 01:02:17;;;;;;;69.50;46.65;;;;;;;5.50;100.00;99762.00;5053891;28;20051;-72
2023/01/06 01:04:43;;;;;;;70.50;45.75;;;;;;;4.99;100.00;99672.69;5053692;28;20510;-72
2023/01/06 01:07:09;;;;;;;71.13;45.30;;;;;;;4.89;100.00;99666.09;5053986;28;20035;-72
2023/01/06 01:09:35;;;;;;;68.53;46.35;;;;;;;5.59;100.00;99764.41;5053568;28;20036;-72
2023/01/06 01:12:10;;;;;;;66.38;45.70;;;;;;;5.05;100.00;99705.38;5053646;28;20095;-70
2023/01/06 01:14:42;;;;;;;66.28;45.40;;;;;;;5.45;100.00;99788.94;5054144;28;20025;-73
2023/01/06 01:17:09;;;;;;;67.57;45.97;;;;;;;5.02;100.00;99712.97;5052660;28;20033;-73
2023/01/06 01:19:35;;;;;;;67.78;45.45;;;;;;;5.03;100.00;99709.59;5053168;28;20033;-73
2023/01/06 01:22:01;;;;;;;71.30;46.50;;;;;;;5.22;100.00;99732.91;5053848;28;20033;-73
2023/01/06 01:24:26;;;;;;;69.35;46.08;;;;;;;5.42;100.00;99773.88;5054001;28;20051;-74
2023/01/06 01:26:52;;;;;;;68.38;44.95;;;;;;;4.79;100.00;99648.59;5053784;28;20029;-73
2023/01/06 01:29:18;;;;;;;69.60;44.80;;;;;;;5.52;100.00;99772.06;5052486;28;20025;-74
2023/01/06 01:31:46;;;;;;;72.00;46.60;;;;;;;4.92;100.00;99703.84;5053792;28;20056;-74
2023/01/06 01:34:13;;;;;;;66.65;44.58;;;;;;;5.59;100.00;99766.09;5053985;28;20029;-74
2023/01/06 01:36:44;;;;;;;68.63;46.22;;;;;;;5.05;100.00;99679.38;5053810;28;20064;-74
2023/01/06 01:39:11;;;;;;;60.78;43.30;;;;;;;5.48;100.00;99736.00;5052618;28;20411;-73
2023/01/06 01:41:36;;;;;;;65.68;42.35;;;;;;;5.06;100.00;99684.38;5052196;28;20057;-73
2023/01/06 01:44:40;;;;;;;64.85;42.78;;;;;;;5.57;100.00;99737.56;5053310;28;20447;-72
2023/01/06 01:47:05;;;;;;;64.45;41.55;;;;;;;5.35;100.00;99734.44;5051654;28;20028;-72
2023/01/06 01:49:36;;;;;;;67.20;43.28;;;;;;;5.10;100.00;99692.75;5052551;28;20400;-72
2023/01/06 01:52:01;;;;;;;61.53;40.67;;;;;;;5.20;100.00;99695.16;5053151;28;20681;-73
2023/01/06 01:54:30;;;;;;;63.10;41.45;;;;;;;5.31;100.00;99737.84;5051968;28;20111;-73
2023/01/06 01:57:18;;;;;;;58.28;39.30;;;;;;;5.28;100.00;99682.47;5053342;28;20025;-74
2023/01/06 01:59:45;;;;;;;60.90;40.50;;;;;;;5.53;100.00;99758.59;5052052;28;20088;-74
2023/01/06 02:02:13;;;;;;;61.13;39.95;;;;;;;5.21;100.00;99679.16;5052789;28;20025;-74
2023/01/06 02:04:42;;;;;;;61.28;41.05;;;;;;;5.47;100.00;99751.94;5053007;28;20562;-73
2023/01/06 02:07:08;;;;;;;64.95;41.38;;;;;;;4.97;100.00;99684.47;5053202;28;20052;-74
2023/01/06 02:10:06;;;;;;;66.50;43.05;;;;;;;5.15;100.00;99781.72;5052368;28;20407;-74
2023/01/06 02:12:32;;;;;;;66.97;43.35;;;;;;;4.86;100.00;99801.25;5042542;28;20022;-73
2023/01/06 02:14:58;;;;;;;63.17;42.15;;;;;;;4.39;100.00;99718.56;5052753;28;20027;-74
2023/01/06 02:17:49;;;;;;;68.57;43.55;;;;;;;4.91;100.00;99807.91;5052578;28;20033;-72
2023/01/06 02:20:21;;;;;;;66.80;43.03;;;;;;;4.93;100.00;99823.03;5051997;28;20450;-73
2023/01/06 02:23:11;;;;;;;70.57;45.13;;;;;;;4.93;100.00;99800.38;5051488;28;20033;-73
2023/01/06 02:26:18;;;;;;;67.90;43.88;;;;;;;4.86;100.00;99798.75;5052558;28;20064;-72
2023/01/06 02:28:49;;;;;;;68.05;44.38;;;;;;;5.07;100.00;99814.50;5051627;28;20494;-74
2023/01/06 02:31:38;;;;;;;68.40;44.78;;;;;;;5.07;100.00;99812.00;5051284;28;20104;-73
2023/01/06 02:34:15;;;;;;;71.00;45.25;;;;;;;4.61;100.00;99757.84;5052167;28;20029;-73
2023/01/06 02:37:09;;;;;;;69.07;42.53;;;;;;;4.82;100.00;99755.13;5052745;28;20032;-73
2023/01/06 02:39:58;;;;;;;67.15;42.85;;;;;;;5.15;100.00;99820.31;5050492;28;20041;-72
2023/01/06 02:42:51;;;;;;;62.58;40.42;;;;;;;4.70;100.00;99755.22;5051743;28;20064;-74
2023/01/06 02:45:22;;;;;;;59.53;39.90;;;;;;;5.06;100.00;99827.13;5052595;28;20033;-74
2023/01/06 02:47:57;;;;;;;44.40;28.13;;;;;;;5.60;100.00;99820.72;5052904;28;20043;-74
2023/01/06 02:51:00;;;;;;;60.35;40.75;;;;;;;5.43;100.00;99820.88;5052520;28;20033;-74
2023/01/06 02:53:38;;;;;;;60.63;39.97;;;;;;;5.12;100.00;99807.75;5052259;28;20037;-72
2023/01/06 02:56:04;;;;;;;57.22;37.67;;;;;;;4.78;100.00;99747.59;5050843;28;20032;-72
2023/01/06 02:58:47;;;;;;;58.80;37.22;;;;;;;5.21;100.00;99812.69;5050345;28;20289;-72
2023/01/06 03:01:25;;;;;;;54.42;35.70;;;;;;;4.94;100.00;99787.75;5050716;28;20457;-72
2023/01/06 03:03:52;;;;;;;55.03;35.33;;;;;;;4.93;100.00;99770.97;5052258;28;20059;-72
2023/01/06 03:06:24;;;;;;;54.88;35.78;;;;;;;5.38;100.00;99859.59;5051410;28;20102;-72
2023/01/06 03:08:51;;;;;;;;;;;;;;;5.46;100.00;99847.75;5052035;28;20040;-71
2023/01/06 03:11:16;;;;;;;50.17;33.28;;;;;;;4.89;100.00;99759.25;5051637;28;19913;-72
2023/01/06 03:14:20;;;;;;;81.63;46.95;;;;;;;5.28;100.00;99839.53;5051452;28;20079;-71
2023/01/06 03:16:46;;;;;;;57.72;38.33;;;;;;;4.79;100.00;99802.16;5050530;28;20461;-73
2023/01/06 03:19:12;;;;;;;57.25;36.75;;;;;;;5.29;100.00;99860.50;5051576;28;20112;-71
2023/01/06 03:21:41;;;;;;;54.22;35.25;;;;;;;4.80;100.00;99759.34;5050359;28;20074;-72
2023/01/06 03:24:08;;;;;;;51.22;33.95;;;;;;;5.21;100.00;99852.16;5051347;28;20060;-72
2023/01/06 03:26:35;;;;;;;53.65;34.60;;;;;;;4.68;100.00;99774.53;5051194;28;20047;-71
2023/01/06 03:29:05;;;;;;;74.85;47.53;;;;;;;4.52;100.00;99757.88;5051736;28;20119;-72
2023/01/06 03:31:36;;;;;;;75.22;45.90;;;;;;;4.97;100.00;99850.69;5051369;28;20561;-72
2023/01/06 03:34:26;;;;;;;78.85;48.03;;;;;;;5.02;100.00;99856.53;5051341;28;20029;-72
2023/01/06 03:37:18;;;;;;;106.15;57.25;;;;;;;5.31;100.00;99832.78;5051567;28;20154;-72
2023/01/06 03:39:51;;;;;;;;;;;;;;;8.60;100.00;99803.88;5051945;28;20043;-74
2023/01/06 03:43:10;;;;;;;6.30;3.20;;;;;;;9.26;100.00;99777.78;5031674;28;19928;-73
2023/01/06 03:45:41;;;;;;;6.45;2.80;;;;;;;9.83;100.00;99755.88;5031654;28;20036;-72
2023/01/06 03:48:12;;;;;;;4.75;2.38;;;;;;;10.32;100.00;99762.91;5030961;28;20040;-73
2023/01/06 03:50:44;;;;;;;8.38;3.05;;;;;;;10.41;100.00;99738.06;5031497;28;20091;-74
2023/01/06 03:53:48;;;;;;;7.03;2.67;;;;;;;10.11;100.00;99749.16;5030994;28;20030;-73
2023/01/06 03:56:49;;;;;;;7.70;2.25;;;;;;;10.58;100.00;99734.16;5023993;28;20128;-71
2023/01/06 03:59:20;;;;;;;3.03;2.20;;;;;;;10.85;100.00;99723.09;5017681;28;20045;-73
2023/01/06 04:01:47;;;;;;;11.57;2.37;;;;;;;10.44;100.00;99686.28;5031536;28;20037;-73
2023/01/06 04:04:15;;;;;;;3.25;2.03;;;;;;;10.34;100.00;99705.25;5031600;28;20049;-73
2023/01/06 04:06:40;;;;;;;4.20;2.20;;;;;;;9.79;100.00;99677.31;5031424;28;20094;-74
2023/01/06 04:09:06;;;;;;;5.75;2.50;;;;;;;10.13;100.00;99751.66;5030177;28;20025;-74
2023/01/06 04:14:15;;;;;;;4.78;2.70;;;;;;;10.19;100.00;99798.03;5030896;28;20039;-73
2023/01/06 04:16:40;;;;;;;3.38;2.38;;;;;;;10.30;100.00;99801.06;5030482;28;20029;-73
2023/01/06 04:19:05;;;;;;;3.45;2.47;;;;;;;10.10;100.00;99864.31;5030421;28;20029;-71
2023/01/06 04:21:31;;;;;;;9.82;2.53;;;;;;;10.64;100.00;99924.59;5048268;28;20158;-73
2023/01/06 04:23:56;;;;;;;7.97;2.17;;;;;;;10.36;100.00;99858.50;5052842;28;20033;-71
2023/01/06 04:26:22;;;;;;;7.18;2.13;;;;;;;10.40;100.00;99868.53;5053398;28;20061;-70
2023/01/06 04:28:47;;;;;;;4.13;2.38;;;;;;;10.57;100.00;99962.09;5052853;28;20430;-71
2023/01/06 04:31:12;;;;;;;5.20;2.10;;;;;;;10.61;100.00;99891.66;5051638;28;20036;-70
2023/01/06 04:33:38;;;;;;;5.53;2.15;;;;;;;10.62;100.00;99936.56;5052249;28;20142;-70
2023/01/06 04:36:04;;;;;;;3.25;2.00;;;;;;;10.18;100.00;99930.16;5052960;28;20110;-71
2023/01/06 04:38:29;;;;;;;4.65;2.38;;;;;;;10.08;100.00;99921.91;5052391;28;20039;-72
2023/01/06 04:40:55;;;;;;;3.40;2.00;;;;;;;10.61;100.00;99973.84;5053467;28;20032;-73
2023/01/06 04:43:20;;;;;;;4.13;2.17;;;;;;;10.32;100.00;99987.34;5053827;28;20400;-74
2023/01/06 04:45:46;;;;;;;5.75;2.50;;;;;;;10.09;100.00;99913.44;5053084;28;20036;-73
2023/01/06 04:48:12;;;;;;;7.65;2.10;;;;;;;9.81;100.00;99846.47;5053419;28;20074;-73
2023/01/06 04:50:38;;;;;;;3.90;2.10;;;;;;;10.42;100.00;99983.69;5053099;28;20100;-72
2023/01/06 04:53:04;;;;;;;5.03;2.35;;;;;;;9.94;100.00;99902.84;5051978;28;20039;-72
2023/01/06 04:55:30;;;;;;;4.75;2.20;;;;;;;9.59;100.00;99863.16;5052722;28;20040;-72
2023/01/06 04:57:55;;;;;;;4.32;2.75;;;;;;;10.08;100.00;99947.31;5053447;28;20036;-72
2023/01/06 05:00:21;;;;;;;3.60;2.53;;;;;;;10.69;100.00;100016.84;5052310;28;20096;-73
2023/01/06 05:02:47;;;;;;;4.78;2.65;;;;;;;9.82;100.00;99934.47;5053227;28;20075;-73
2023/01/06 05:05:13;;;;;;;4.40;2.20;;;;;;;10.38;100.00;99999.03;5052787;28;20456;-73
2023/01/06 05:07:39;;;;;;;4.50;2.50;;;;;;;10.36;100.00;99975.38;5052898;28;20116;-75
2023/01/06 05:10:06;;;;;;;4.82;3.10;;;;;;;10.45;100.00;100025.97;5053229;28;20104;-74
2023/01/06 05:12:32;;;;;;;7.43;2.60;;;;;;;9.75;100.00;99960.03;5052677;28;20025;-72
2023/01/06 05:14:58;;;;;;;3.15;2.10;;;;;;;9.87;100.00;99945.34;5052891;28;20040;-72
2023/01/06 05:17:23;;;;;;;6.03;2.20;;;;;;;9.90;100.00;99962.22;5052805;28;20477;-72
2023/01/06 05:19:49;;;;;;;5.18;2.10;;;;;;;9.96;100.00;99934.97;5052584;28;20063;-72
2023/01/06 05:22:16;;;;;;;5.18;1.85;;;;;;;10.64;100.00;100016.97;5052474;28;20036;-71
2023/01/06 05:24:42;;;;;;;11.73;8.30;;;;;;;10.15;100.00;99970.88;5051829;28;20115;-70
2023/01/06 05:27:07;;;;;;;10.85;6.60;;;;;;;10.30;100.00;100029.75;5052030;28;20116;-70
2023/01/06 05:29:33;;;;;;;6.32;3.15;;;;;;;10.03;100.00;99917.81;5050863;28;20404;-70
2023/01/06 05:31:59;;;;;;;9.68;4.93;;;;;;;10.28;100.00;99951.91;5052514;28;20051;-73
2023/01/06 05:34:24;;;;;;;5.57;2.35;;;;;;;10.74;100.00;100048.03;5051715;28;20025;-71
2023/01/06 05:36:50;;;;;;;3.85;2.20;;;;;;;10.47;100.00;99988.63;5052375;28;20025;-73
2023/01/06 05:39:15;;;;;;;9.30;3.65;;;;;;;10.45;100.00;100034.44;5052699;28;20094;-71
2023/01/06 05:41:40;;;;;;;4.72;2.80;;;;;;;10.19;100.00;99990.25;5043084;28;20045;-70
2023/01/06 05:44:06;;;;;;;4.22;2.53;;;;;;;10.24;100.00;99993.50;5034987;28;20030;-70
2023/01/06 05:46:31;;;;;;;4.63;2.75;;;;;;;9.81;100.00;99906.56;5032040;28;20025;-73
2023/01/06 05:48:59;;;;;;;5.60;3.00;;;;;;;9.91;100.00;99877.53;5033160;28;20025;-70
2023/01/06 05:51:25;;;;;;;5.90;2.60;;;;;;;10.37;100.00;99960.09;5032671;28;20033;-69
2023/01/06 05:53:50;;;;;;;6.95;2.40;;;;;;;10.88;100.00;100010.34;5031775;28;20037;-69
2023/01/06 05:56:17;;;;;;;14.93;5.35;;;;;;;10.57;100.00;100010.38;5031897;28;20380;-70
2023/01/06 05:58:45;;;;;;;12.13;5.88;;;;;;;10.53;100.00;100013.03;5063475;28;20040;-70
2023/01/06 06:01:19;;;;;;;6.70;4.10;;;;;;;10.80;100.00;100015.66;5031821;28;20037;-69
2023/01/06 06:03:45;;;;;;;4.75;2.67;;;;;;;10.82;100.00;99970.66;5031817;28;20128;-70
2023/01/06 06:06:11;;;;;;;9.55;5.13;;;;;;;10.77;100.00;100010.66;5030992;28;20610;-71
2023/01/06 06:08:36;;;;;;;8.13;3.50;;;;;;;10.88;100.00;100005.25;5032582;28;20029;-71
2023/01/06 06:11:03;;;;;;;7.68;5.13;;;;;;;10.78;100.00;99960.63;5032628;28;20034;-70
2023/01/06 06:13:28;;;;;;;4.90;2.83;;;;;;;10.81;100.00;99973.28;5032498;28;20029;-70
2023/01/06 06:16:10;;;;;;;6.43;3.45;;;;;;;10.80;100.00;99994.47;5032477;28;20047;-71
2023/01/06 06:18:41;;;;;;;10.18;5.57;;;;;;;10.85;100.00;100025.72;5032761;28;20112;-71
2023/01/06 06:21:11;;;;;;;6.53;3.92;;;;;;;10.94;100.00;99990.66;5031443;28;20033;-71
2023/01/06 06:23:36;;;;;;;4.28;2.75;;;;;;;10.93;100.00;100027.16;5032401;28;20037;-72
2023/01/06 06:26:01;;;;;;;4.07;2.80;;;;;;;10.94;100.00;99994.91;5032238;28;20037;-70
2023/01/06 06:28:30;;;;;;;5.50;2.50;;;;;;;11.07;100.00;99971.59;5032092;28;20048;-70
2023/01/06 06:31:10;;;;;;;5.38;3.28;;;;;;;11.71;100.00;100044.31;5030992;28;20033;-72
2023/01/06 06:33:36;;;;;;;5.50;2.70;;;;;;;11.64;100.00;99961.34;5032226;28;20032;-71
2023/01/06 06:36:02;;;;;;;5.63;2.97;;;;;;;12.13;100.00;100021.69;5030814;28;20037;-72
2023/01/06 06:38:28;;;;;;;5.18;2.65;;;;;;;12.79;100.00;100028.72;5032311;28;20091;-72
2023/01/06 06:40:54;;;;;;;3.85;2.53;;;;;;;12.71;100.00;100030.72;5031142;28;20440;-72
2023/01/06 06:43:19;;;;;;;5.00;2.10;;;;;;;12.82;100.00;100043.91;5030889;28;20042;-72
2023/01/06 06:45:46;;;;;;;7.28;2.50;;;;;;;13.04;100.00;100065.25;5031893;28;20404;-72
2023/01/06 06:48:11;;;;;;;8.85;2.60;;;;;;;13.34;100.00;100041.13;5031911;28;20040;-72
2023/01/06 06:50:37;;;;;;;7.47;4.07;;;;;;;14.01;100.00;100144.09;5030479;28;20420;-71
2023/01/06 06:53:02;;;;;;;8.05;3.65;;;;;;;13.85;100.00;100168.59;5031445;28;20025;-71
2023/01/06 06:55:27;;;;;;;6.38;2.80;;;;;;;13.63;100.00;100124.28;5031577;28;20045;-71
2023/01/06 06:57:53;;;;;;;9.73;5.38;;;;;;;13.93;100.00;100100.09;5030869;28;20108;-71
2023/01/06 07:00:18;;;;;;;6.30;3.85;;;;;;;14.44;100.00;100164.53;5030318;28;20030;-70
2023/01/06 07:02:48;;;;;;;12.60;5.50;;;;;;;13.73;100.00;100169.88;5031312;28;20508;-71
2023/01/06 07:05:14;;;;;;;8.48;4.28;;;;;;;14.72;100.00;100200.91;5031396;28;20036;-71
2023/01/06 07:07:40;;;;;;;9.77;5.53;;;;;;;14.68;100.00;100198.53;5031526;28;20064;-72
2023/01/06 07:10:05;;;;;;;8.00;4.78;;;;;;;14.81;100.00;100215.06;5031418;28;20559;-71
2023/01/06 07:12:31;;;;;;;11.10;6.35;;;;;;;12.52;100.00;100131.72;5031579;28;20099;-71
2023/01/06 07:14:56;;;;;;;10.18;4.97;;;;;;;12.00;100.00;100110.44;5031217;28;20495;-71
2023/01/06 07:17:26;;;;;;;4.85;3.20;;;;;;;12.32;100.00;100173.13;5030957;28;20112;-70
2023/01/06 07:19:52;;;;;;;8.02;4.45;;;;;;;12.31;100.00;100179.13;5031197;28;20492;-70
2023/01/06 07:22:17;;;;;;;8.90;5.00;;;;;;;12.08;100.00;100151.81;5029664;28;20091;-71
2023/01/06 07:24:43;;;;;;;5.45;3.08;;;;;;;12.46;100.00;100224.53;5031025;28;20095;-70
2023/01/06 07:27:08;;;;;;;4.82;2.63;;;;;;;12.46;100.00;100229.63;5031453;28;20052;-71
2023/01/06 07:29:33;;;;;;;10.57;3.78;;;;;;;12.17;100.00;100171.09;5030881;28;20030;-71
2023/01/06 07:31:59;;;;;;;9.13;3.42;;;;;;;12.62;100.00;100238.47;5031094;28;20381;-71
2023/01/06 07:34:25;;;;;;;7.20;4.13;;;;;;;12.57;100.00;100242.06;5030717;28;20063;-70
2023/01/06 07:36:50;;;;;;;7.57;4.60;;;;;;;12.52;100.00;100244.75;5030696;28;20038;-70
2023/01/06 07:39:15;;;;;;;6.55;3.20;;;;;;;12.39;100.00;100220.53;5031061;28;20171;-70
2023/01/06 07:41:41;;;;;;;6.60;2.92;;;;;;;12.73;100.00;100286.59;5030558;28;20476;-70
2023/01/06 07:44:06;;;;;;;8.10;4.03;;;;;;;12.74;100.00;100289.09;5030369;28;20037;-69
2023/01/06 07:46:32;;;;;;;10.77;6.22;;;;;;;12.82;100.00;100292.25;5029190;28;20022;-70
2023/01/06 07:48:57;;;;;;;6.95;3.28;;;;;;;12.65;100.00;100245.19;5030330;28;20123;-69
2023/01/06 07:51:22;;;;;;;8.32;4.32;;;;;;;12.91;100.00;100303.88;5030256;28;20048;-70
2023/01/06 07:53:48;;;;;;;6.00;3.10;;;;;;;12.91;100.00;100319.19;5030540;28;20092;-69
2023/01/06 07:56:13;;;;;;;11.13;4.43;;;;;;;12.99;100.00;100320.59;5030541;28;20112;-70
2023/01/06 07:58:39;;;;;;;9.27;4.90;;;;;;;12.90;100.00;100314.94;5032207;28;20499;-70
2023/01/06 08:01:06;;;;;;;6.45;3.25;;;;;;;13.08;100.00;100347.56;5034452;28;20029;-70
2023/01/06 08:03:31;;;;;;;7.72;4.28;;;;;;;12.63;100.00;100272.47;5034126;28;20049;-70
2023/01/06 08:05:57;;;;;;;5.43;3.38;;;;;;;13.06;100.00;100331.47;5034500;28;20044;-70
2023/01/06 08:08:22;;;;;;;7.05;4.10;;;;;;;13.18;100.00;100353.22;5034704;28;20492;-70
2023/01/06 08:10:48;;;;;;;6.85;3.50;;;;;;;12.72;100.00;100292.56;5033054;28;20029;-71
2023/01/06 08:13:13;;;;;;;7.13;3.97;;;;;;;12.65;100.00;100281.75;5034513;28;20029;-70
2023/01/06 08:15:39;;;;;;;5.70;2.58;;;;;;;12.72;100.00;100301.06;5034121;28;20080;-70
2023/01/06 08:18:04;;;;;;;5.55;2.65;;;;;;;13.25;100.00;100380.22;5034120;28;20506;-71
2023/01/06 08:20:30;;;;;;;4.82;3.10;;;;;;;13.34;100.00;100375.66;5034104;28;20033;-70
2023/01/06 08:22:56;;;;;;;8.70;4.47;;;;;;;13.15;100.00;100346.50;5034168;28;20029;-70
2023/01/06 08:25:22;;;;;;;8.90;4.93;;;;;;;13.04;100.00;100336.63;5034205;28;20026;-70
2023/01/06 08:27:47;;;;;;;9.80;5.05;;;;;;;13.16;100.00;100377.97;5034440;28;20419;-71
2023/01/06 08:30:13;;;;;;;12.45;5.93;;;;;;;13.10;100.00;100381.56;5034211;28;20021;-71
2023/01/06 08:32:38;;;;;;;4.00;1.98;;;;;;;12.71;100.00;100316.44;5033842;28;20420;-70
2023/01/06 08:35:04;;;;;;;8.95;2.33;;;;;;;13.22;100.00;100401.59;5033628;28;20476;-71
2023/01/06 08:37:29;;;;;;;4.25;1.92;;;;;;;13.22;100.00;100406.69;5033520;28;20496;-70
2023/01/06 08:39:55;;;;;;;9.18;3.30;;;;;;;12.92;100.00;100351.47;5034445;28;20025;-70
2023/01/06 08:42:20;;;;;;;5.28;2.20;;;;;;;13.25;100.00;100393.00;5033792;28;20419;-70
2023/01/06 08:44:46;;;;;;;5.97;2.92;;;;;;;12.81;100.00;100307.59;5032276;28;20033;-70
2023/01/06 08:47:11;;;;;;;7.13;3.80;;;;;;;13.24;100.00;100379.41;5033823;28;20032;-71
2023/01/06 08:49:37;;;;;;;11.13;5.00;;;;;;;12.82;100.00;100314.34;5033658;28;20032;-70
2023/01/06 08:52:02;;;;;;;10.02;3.65;;;;;;;13.49;100.00;100410.91;5032419;28;20037;-70
2023/01/06 08:54:29;;;;;;;9.18;3.00;;;;;;;13.25;100.00;100386.16;5033977;28;20048;-71
2023/01/06 08:56:55;;;;;;;5.10;2.35;;;;;;;12.93;100.00;100322.53;5033492;28;20037;-70
2023/01/06 08:59:21;;;;;;;4.75;2.70;;;;;;;13.39;100.00;100406.16;5033702;28;20063;-71
2023/01/06 09:01:46;;;;;;;3.42;1.60;;;;;;;13.17;100.00;100354.97;5032207;28;20029;-70
2023/01/06 09:04:12;;;;;;;3.58;1.98;;;;;;;13.58;100.00;100422.53;5032927;28;20046;-70
2023/01/06 09:06:39;;;;;;;6.53;3.03;;;;;;;13.47;100.00;100420.34;5033586;28;20033;-70
2023/01/06 09:09:06;;;;;;;4.65;2.60;;;;;;;13.07;100.00;100359.50;5032995;28;20030;-70
2023/01/06 09:11:31;;;;;;;6.95;3.67;;;;;;;13.23;100.00;100356.47;5032017;28;20518;-70
2023/01/06 09:13:57;;;;;;;6.32;3.63;;;;;;;13.46;100.00;100394.84;5033080;28;20021;-70
2023/01/06 09:16:22;;;;;;;5.38;3.17;;;;;;;13.42;100.00;100389.00;5032648;28;20470;-70
2023/01/06 09:18:50;;;;;;;7.38;3.55;;;;;;;13.54;100.00;100439.69;5032895;28;20091;-70
2023/01/06 09:21:19;;;;;;;3.17;2.13;;;;;;;13.39;100.00;100404.41;5033267;28;20044;-70
2023/01/06 09:23:45;;;;;;;6.95;3.35;;;;;;;13.50;100.00;100386.19;5032979;28;20365;-70
2023/01/06 09:26:10;;;;;;;5.80;3.33;;;;;;;13.60;100.00;100383.28;5033043;28;20026;-70
2023/01/06 09:28:36;;;;;;;7.18;3.50;;;;;;;13.32;100.00;100356.16;5032912;28;20029;-70
2023/01/06 09:31:02;;;;;;;3.47;2.17;;;;;;;13.90;100.00;100440.19;5032742;28;20029;-70
2023/01/06 09:33:27;;;;;;;6.10;3.20;;;;;;;13.58;100.00;100405.50;5032079;28;20029;-70
2023/01/06 09:35:52;;;;;;;6.93;4.30;;;;;;;13.82;100.00;100409.78;5032851;28;20029;-70
2023/01/06 09:38:18;;;;;;;6.57;3.30;;;;;;;13.80;100.00;100387.72;5032895;28;20060;-70
2023/01/06 09:41:14;;;;;;;10.57;2.90;;;;;;;14.21;100.00;100448.47;5032761;28;20152;-70
2023/01/06 09:44:09;;;;;;;5.65;2.60;;;;;;;14.18;100.00;100450.31;5032881;28;20033;-70
2023/01/06 09:46:38;;;;;;;4.43;2.00;;;;;;;14.00;100.00;100423.66;5032884;28;20030;-69
2023/01/06 09:49:16;;;;;;;3.55;2.03;;;;;;;14.19;100.00;100440.00;5033124;28;20079;-71
2023/01/06 09:51:42;;;;;;;4.57;1.52;;;;;;;14.10;100.00;100417.34;5032960;28;20120;-71
2023/01/06 09:54:41;;;;;;;6.60;1.77;;;;;;;14.18;100.00;100420.44;5032472;28;20030;-71
2023/01/06 09:57:14;;;;;;;6.15;2.25;;;;;;;14.14;100.00;100395.88;5033161;28;20487;-70
2023/01/06 10:00:07;;;;;;;4.80;1.92;;;;;;;14.40;100.00;100410.31;5032536;28;20030;-70
2023/01/06 10:02:36;;;;;;;4.47;1.85;;;;;;;14.34;100.00;100405.44;5031779;28;20053;-70
2023/01/06 10:05:17;;;;;;;2.90;1.40;;;;;;;13.63;100.00;100296.31;5032463;28;20120;-71
2023/01/06 10:07:56;;;;;;;7.22;1.52;;;;;;;14.33;100.00;100419.94;5032230;28;20411;-70
2023/01/06 10:11:00;;;;;;;4.63;1.33;;;;;;;14.53;100.00;100421.75;5032596;28;20034;-71
2023/01/06 10:13:50;;;;;;;5.43;1.85;;;;;;;13.68;100.00;100297.00;5010141;28;20034;-71
2023/01/06 10:16:15;;;;;;;7.05;1.95;;;;;;;14.63;100.00;100410.28;5009998;28;20045;-70
2023/01/06 10:18:53;;;;;;;3.22;1.70;;;;;;;14.34;100.00;100388.31;5023470;28;20103;-70
2023/01/06 10:21:29;;;;;;;4.22;1.63;;;;;;;14.68;100.00;100436.53;5031078;28;20059;-70
2023/01/06 10:24:11;;;;;;;4.47;1.75;;;;;;;14.27;100.00;100337.44;5032589;28;20057;-71
2023/01/06 10:26:42;;;;;;;9.07;1.80;;;;;;;14.66;100.00;100423.81;5032175;28;20037;-71
2023/01/06 10:29:19;;;;;;;2.70;1.30;;;;;;;14.17;100.00;100346.34;5032092;28;20037;-72
2023/01/06 10:31:57;;;;;;;2.55;1.50;;;;;;;14.65;100.00;100429.81;5032160;28;20030;-72
2023/01/06 10:34:27;;;;;;;5.30;1.40;;;;;;;14.64;100.00;100435.81;5031067;28;20029;-72
2023/01/06 10:37:10;;;;;;;2.65;1.88;;;;;;;14.82;100.00;100420.66;5032152;28;20037;-72
2023/01/06 10:39:39;;;;;;;4.30;1.95;;;;;;;14.26;100.00;100336.59;5032369;28;20466;-72
2023/01/06 10:45:12;;;;;;;3.25;1.25;;;;;;;14.74;100.00;100406.44;5030294;28;20538;-70
2023/01/06 10:47:41;;;;;;;6.07;1.55;;;;;;;14.59;100.00;100337.94;5031462;28;20033;-70
2023/01/06 10:50:14;;;;;;;3.70;1.98;;;;;;;14.82;100.00;100382.25;5031838;28;20029;-69
2023/01/06 10:52:40;;;;;;;4.65;2.08;;;;;;;14.98;100.00;100391.84;5030993;28;20030;-70
2023/01/06 10:55:06;;;;;;;6.05;2.00;;;;;;;14.94;100.00;100380.06;5031539;28;20558;-69
2023/01/06 10:57:37;;;;;;;6.63;2.17;;;;;;;14.50;100.00;100299.03;5031367;28;20083;-70
2023/01/06 11:00:06;;;;;;;3.70;1.77;;;;;;;14.99;100.00;100362.81;5031141;28;20067;-77
2023/01/06 11:02:31;;;;;;;6.43;1.67;;;;;;;14.77;100.00;100351.72;5030252;28;20049;-72
2023/01/06 11:05:00;;;;;;;5.13;2.20;;;;;;;14.67;100.00;100294.97;5032123;28;20032;-72
2023/01/06 11:07:25;;;;;;;8.70;2.40;;;;;;;14.48;100.00;100265.03;5031951;28;20116;-71
2023/01/06 11:09:52;;;;;;;3.70;2.03;;;;;;;14.76;100.00;100276.66;5031494;28;20516;-70
2023/01/06 11:12:26;;;;;;;3.40;2.00;;;;;;;14.82;100.00;100293.50;5031909;28;20104;-70
2023/01/06 11:14:58;;;;;;;3.92;1.92;;;;;;;15.08;100.00;100334.25;5031401;28;20037;-70
2023/01/06 11:17:25;;;;;;;5.72;2.20;;;;;;;14.69;100.00;100253.94;5031474;28;20025;-70
2023/01/06 11:20:25;;;;;;;6.15;2.00;;;;;;;14.20;100.00;100219.19;5031028;28;20038;-70
2023/01/06 11:22:51;;;;;;;2.60;1.40;;;;;;;14.92;100.00;100338.31;5031215;28;20262;-70
2023/01/06 11:25:19;;;;;;;3.45;1.80;;;;;;;15.06;100.00;100350.56;5029947;28;20439;-72
2023/01/06 11:27:46;;;;;;;6.95;1.88;;;;;;;15.01;100.00;100340.53;5031076;28;20099;-70
2023/01/06 11:30:26;;;;;;;6.38;1.70;;;;;;;14.84;100.00;100271.22;5030984;28;20029;-70
2023/01/06 11:32:53;;;;;;;5.30;1.80;;;;;;;14.94;100.00;100261.44;5030765;28;20029;-68
2023/01/06 11:35:23;;;;;;;3.75;1.42;;;;;;;15.31;100.00;100352.06;5029363;28;20029;-69
2023/01/06 11:37:58;;;;;;;6.53;3.65;;;;;;;15.17;100.00;100338.97;5030364;28;20033;-68